Time;durP1;ratioP1;P1;durP2;ratioP2;P2;SDS_P1;SDS_P2;PMS_P1;PMS_P2;Temp;Humidity;BMP_temperature;BMP_pressure;BME280_temperature;BME280_humidity;BME280_pressure;Samples;Min_cycle;Max_cycle;Signal;HPM_P1;HPM_P2
2021/07/06 00:00:10;;;;;;;4.30;4.00;;;16.50;99.90;;;;;;5105054;28;20216;-50
2021/07/06 00:02:38;;;;;;;4.30;4.00;;;16.50;99.90;;;;;;5101031;28;20216;-48
2021/07/06 00:05:08;;;;;;;4.10;3.80;;;16.50;99.90;;;;;;5105125;28;20558;-51
2021/07/06 00:07:36;;;;;;;3.87;3.63;;;16.40;99.90;;;;;;5100294;28;20201;-49
2021/07/06 00:10:04;;;;;;;3.93;3.73;;;16.50;99.90;;;;;;5090627;28;20208;-50
2021/07/06 00:12:31;;;;;;;3.97;3.73;;;16.50;99.90;;;;;;5100756;28;20710;-49
2021/07/06 00:14:58;;;;;;;3.63;3.33;;;16.50;99.90;;;;;;5098565;28;20221;-50
2021/07/06 00:17:24;;;;;;;3.40;3.20;;;16.50;99.90;;;;;;5102346;28;20212;-47
2021/07/06 00:19:51;;;;;;;3.50;3.30;;;16.50;99.90;;;;;;5100714;28;20429;-51
2021/07/06 00:22:18;;;;;;;3.83;3.40;;;16.50;99.90;;;;;;5104045;28;20223;-49
2021/07/06 00:24:45;;;;;;;3.50;3.20;;;16.50;99.90;;;;;;5101651;28;20918;-48
2021/07/06 00:27:14;;;;;;;3.30;3.00;;;16.50;99.90;;;;;;5090195;28;20210;-49
2021/07/06 00:29:41;;;;;;;3.80;3.60;;;16.50;99.90;;;;;;5100219;28;20209;-49
2021/07/06 00:32:08;;;;;;;3.50;3.20;;;16.50;99.90;;;;;;5104573;28;20583;-48
2021/07/06 00:34:35;;;;;;;4.07;3.13;;;16.50;99.90;;;;;;5100608;28;20298;-48
2021/07/06 00:37:01;;;;;;;3.50;3.00;;;16.50;99.90;;;;;;5104598;28;20196;-52
2021/07/06 00:39:28;;;;;;;2.70;2.60;;;16.50;99.90;;;;;;5101359;28;20197;-47
2021/07/06 00:41:54;;;;;;;3.67;3.37;;;16.50;99.90;;;;;;5088408;28;20570;-48
2021/07/06 00:44:23;;;;;;;5.47;3.27;;;16.60;99.90;;;;;;5102733;28;20673;-46
2021/07/06 00:46:50;;;;;;;3.27;2.87;;;16.60;99.90;;;;;;5099184;28;20884;-48
2021/07/06 00:49:17;;;;;;;3.73;2.60;;;16.60;99.90;;;;;;5103618;28;20205;-53
2021/07/06 00:51:44;;;;;;;4.60;3.00;;;16.60;99.90;;;;;;5100725;28;20217;-50
2021/07/06 00:54:11;;;;;;;3.53;2.87;;;16.60;99.90;;;;;;5104545;28;20201;-49
2021/07/06 00:56:38;;;;;;;2.80;2.63;;;16.60;99.90;;;;;;5085876;28;20412;-48
2021/07/06 00:59:05;;;;;;;2.70;2.50;;;16.70;99.90;;;;;;5103265;28;20202;-50
2021/07/06 01:01:33;;;;;;;5.83;2.70;;;16.70;99.90;;;;;;5100799;28;20221;-48
2021/07/06 01:04:00;;;;;;;2.80;2.57;;;16.70;99.90;;;;;;5103839;28;20201;-50
2021/07/06 01:06:26;;;;;;;2.40;2.30;;;16.70;99.90;;;;;;5101593;28;20308;-52
2021/07/06 01:08:53;;;;;;;3.77;2.70;;;16.70;99.90;;;;;;5102117;28;20420;-52
2021/07/06 01:11:21;;;;;;;3.70;2.97;;;16.70;99.90;;;;;;5098009;28;20274;-51
2021/07/06 01:13:49;;;;;;;3.10;2.80;;;16.70;99.90;;;;;;5089204;28;20224;-49
2021/07/06 01:16:16;;;;;;;2.53;2.33;;;16.70;99.90;;;;;;5099859;28;20197;-49
2021/07/06 01:18:45;;;;;;;11.40;2.50;;;16.70;99.90;;;;;;5099692;28;20197;-50
2021/07/06 01:21:12;;;;;;;4.60;2.37;;;16.70;99.90;;;;;;5104058;28;20602;-52
2021/07/06 01:23:41;;;;;;;2.70;2.50;;;16.70;99.90;;;;;;5099462;28;20389;-47
2021/07/06 01:26:09;;;;;;;2.60;2.20;;;16.80;99.90;;;;;;5103388;28;20221;-48
2021/07/06 01:28:38;;;;;;;2.50;2.30;;;16.80;99.90;;;;;;5085221;28;20205;-47
2021/07/06 01:31:04;;;;;;;3.20;2.30;;;16.80;99.90;;;;;;5098998;28;20208;-50
2021/07/06 01:33:33;;;;;;;2.27;2.17;;;16.80;99.90;;;;;;5099821;28;20661;-45
2021/07/06 01:36:03;;;;;;;2.27;2.17;;;16.80;99.90;;;;;;5100646;28;20228;-49
2021/07/06 01:38:30;;;;;;;2.33;2.13;;;16.80;99.90;;;;;;5096263;28;20197;-47
2021/07/06 01:40:58;;;;;;;6.23;2.90;;;16.90;99.90;;;;;;5102301;28;20581;-50
2021/07/06 01:43:24;;;;;;;2.63;2.40;;;16.80;99.90;;;;;;5075736;28;20209;-49
2021/07/06 01:45:51;;;;;;;2.37;2.17;;;16.80;99.90;;;;;;5102469;28;20216;-51
2021/07/06 01:48:18;;;;;;;2.23;2.00;;;16.90;99.90;;;;;;5098878;28;20276;-50
2021/07/06 01:50:45;;;;;;;4.07;2.27;;;16.90;99.90;;;;;;5094160;28;20203;-48
2021/07/06 01:53:15;;;;;;;3.43;2.00;;;16.90;99.90;;;;;;5098758;28;20213;-51
2021/07/06 01:55:44;;;;;;;2.20;2.00;;;16.90;99.90;;;;;;5103251;28;20220;-47
2021/07/06 01:58:14;;;;;;;3.67;2.03;;;16.90;99.90;;;;;;5087166;28;20259;-48
2021/07/06 02:00:43;;;;;;;2.30;2.13;;;16.90;99.90;;;;;;5101481;28;20654;-47
2021/07/06 02:03:11;;;;;;;2.50;2.30;;;16.90;99.90;;;;;;5098963;28;20241;-53
2021/07/06 02:05:40;;;;;;;2.20;2.10;;;16.90;99.90;;;;;;5095894;28;20217;-48
2021/07/06 02:08:09;;;;;;;2.20;1.60;;;16.90;99.90;;;;;;5099667;28;20211;-53
2021/07/06 02:10:36;;;;;;;3.87;2.20;;;16.90;99.90;;;;;;5101806;28;20205;-48
2021/07/06 02:13:04;;;;;;;2.50;2.30;;;16.90;99.90;;;;;;5096310;28;20224;-51
2021/07/06 02:15:32;;;;;;;2.53;2.00;;;16.90;99.90;;;;;;5086435;28;20297;-47
2021/07/06 02:17:58;;;;;;;2.40;2.10;;;16.90;99.90;;;;;;5101446;28;20197;-55
2021/07/06 02:20:25;;;;;;;2.80;2.33;;;17.00;99.90;;;;;;5092940;28;20958;-46
2021/07/06 02:22:53;;;;;;;4.03;2.33;;;17.00;99.90;;;;;;5096721;28;20216;-48
2021/07/06 02:25:21;;;;;;;3.83;2.20;;;17.00;99.90;;;;;;5097591;28;20212;-48
2021/07/06 02:27:49;;;;;;;2.30;2.10;;;17.00;99.90;;;;;;5102613;28;20312;-48
2021/07/06 02:30:18;;;;;;;2.10;2.00;;;17.00;99.90;;;;;;5085742;28;20209;-50
2021/07/06 02:32:47;;;;;;;2.10;2.00;;;17.00;99.90;;;;;;5102585;28;20221;-45
2021/07/06 02:35:15;;;;;;;3.03;2.33;;;17.00;99.90;;;;;;5091859;28;20197;-54
2021/07/06 02:37:42;;;;;;;3.13;2.00;;;17.00;99.90;;;;;;5102633;28;20229;-50
2021/07/06 02:40:12;;;;;;;3.10;2.50;;;17.00;99.90;;;;;;5099515;28;20197;-52
2021/07/06 02:42:39;;;;;;;2.20;2.10;;;17.00;99.90;;;;;;5101885;28;20217;-49
2021/07/06 02:45:08;;;;;;;2.33;2.20;;;17.10;99.90;;;;;;5093457;28;20208;-54
2021/07/06 02:47:35;;;;;;;2.77;2.33;;;17.10;99.90;;;;;;5082332;28;20723;-46
2021/07/06 02:50:04;;;;;;;4.30;2.17;;;17.10;99.90;;;;;;5087323;28;20280;-52
2021/07/06 02:52:31;;;;;;;2.97;1.90;;;17.10;99.90;;;;;;5087310;28;20507;-46
2021/07/06 02:54:58;;;;;;;2.20;2.00;;;17.10;99.90;;;;;;5101555;28;20231;-50
2021/07/06 02:57:36;;;;;;;2.83;2.00;;;17.10;99.90;;;;;;5092876;28;20393;-53
2021/07/06 03:00:08;;;;;;;2.07;1.87;;;17.10;99.90;;;;;;5095403;28;20258;-54
2021/07/06 03:02:35;;;;;;;3.33;2.40;;;17.10;99.90;;;;;;5088970;28;20221;-45
2021/07/06 03:05:04;;;;;;;3.07;2.17;;;17.10;99.90;;;;;;5100255;28;20198;-55
2021/07/06 03:07:31;;;;;;;1.93;1.80;;;17.10;99.90;;;;;;5093444;28;20232;-49
2021/07/06 03:09:57;;;;;;;2.70;2.20;;;17.10;99.90;;;;;;5101662;28;20213;-51
2021/07/06 03:12:24;;;;;;;5.57;2.67;;;17.10;99.90;;;;;;5099258;28;20390;-48
2021/07/06 03:14:50;;;;;;;2.60;2.20;;;17.10;99.90;;;;;;5106049;28;20206;-46
2021/07/06 03:17:17;;;;;;;2.50;2.30;;;17.10;99.90;;;;;;5101985;28;20488;-50
2021/07/06 03:19:44;;;;;;;2.17;1.90;;;17.10;99.90;;;;;;5092692;28;20220;-50
2021/07/06 03:22:12;;;;;;;4.80;2.90;;;17.10;99.90;;;;;;5099516;28;20683;-53
2021/07/06 03:24:38;;;;;;;2.40;2.10;;;17.10;99.90;;;;;;5099022;28;20197;-46
2021/07/06 03:27:05;;;;;;;2.50;2.17;;;17.10;99.90;;;;;;5103801;28;20213;-54
2021/07/06 03:29:32;;;;;;;2.73;2.07;;;17.10;99.90;;;;;;5104286;28;20223;-47
2021/07/06 03:31:59;;;;;;;4.10;2.60;;;17.10;99.90;;;;;;5105179;28;20712;-54
2021/07/06 03:34:26;;;;;;;3.03;2.60;;;17.10;99.90;;;;;;5090742;28;21212;-50
2021/07/06 03:36:53;;;;;;;2.43;2.23;;;17.10;99.90;;;;;;5104969;28;20189;-48
2021/07/06 03:39:21;;;;;;;3.97;2.53;;;17.10;99.90;;;;;;5093203;28;20519;-49
2021/07/06 03:41:47;;;;;;;2.27;2.17;;;17.10;99.90;;;;;;5105840;28;20655;-51
2021/07/06 03:44:14;;;;;;;2.30;2.00;;;17.10;99.90;;;;;;5101183;28;20201;-50
2021/07/06 03:46:41;;;;;;;3.50;1.97;;;17.10;99.90;;;;;;5105518;28;20213;-44
2021/07/06 03:49:07;;;;;;;2.43;2.20;;;17.10;99.90;;;;;;5094879;28;20204;-51
2021/07/06 03:51:34;;;;;;;2.80;2.10;;;17.10;99.90;;;;;;5100001;28;20228;-48
2021/07/06 03:54:00;;;;;;;2.37;2.27;;;17.10;99.90;;;;;;5092601;28;20685;-53
2021/07/06 03:56:28;;;;;;;3.73;2.40;;;17.10;99.90;;;;;;5102856;28;20197;-50
2021/07/06 03:58:55;;;;;;;3.50;2.40;;;17.10;99.90;;;;;;5104944;28;20201;-54
2021/07/06 04:01:22;;;;;;;2.93;2.73;;;17.10;99.90;;;;;;5101396;28;20858;-45
2021/07/06 04:03:48;;;;;;;2.70;2.43;;;17.10;99.90;;;;;;5105302;28;20204;-46
2021/07/06 04:06:15;;;;;;;2.60;2.40;;;17.10;99.90;;;;;;5087571;28;20796;-46
2021/07/06 04:08:41;;;;;;;2.30;2.20;;;17.10;99.90;;;;;;5104214;28;20204;-47
2021/07/06 04:11:08;;;;;;;3.30;3.00;;;17.10;99.90;;;;;;5095387;28;20201;-50
2021/07/06 04:13:36;;;;;;;2.67;2.47;;;17.10;99.90;;;;;;5104066;28;20204;-50
2021/07/06 04:16:03;;;;;;;5.13;2.70;;;17.10;99.90;;;;;;5103424;28;20208;-51
2021/07/06 04:18:29;;;;;;;3.70;2.60;;;17.10;99.90;;;;;;5103273;28;20413;-45
2021/07/06 04:20:56;;;;;;;3.23;2.50;;;17.20;99.90;;;;;;5101816;28;20198;-53
2021/07/06 04:23:23;;;;;;;4.10;2.57;;;17.20;99.90;;;;;;5090602;28;20235;-49
2021/07/06 04:25:49;;;;;;;3.43;2.70;;;17.20;99.90;;;;;;5097526;28;20202;-46
2021/07/06 04:28:16;;;;;;;2.67;2.47;;;17.20;99.90;;;;;;5100557;28;20868;-46
2021/07/06 04:30:44;;;;;;;2.57;2.40;;;17.30;99.90;;;;;;5104621;28;20205;-46
2021/07/06 04:33:11;;;;;;;2.97;2.10;;;17.30;99.90;;;;;;5091984;28;20605;-53
2021/07/06 04:35:37;;;;;;;2.40;2.20;;;17.30;99.90;;;;;;5103378;28;20197;-47
2021/07/06 04:38:04;;;;;;;3.40;2.70;;;17.30;99.90;;;;;;5088037;28;20206;-51
2021/07/06 04:40:31;;;;;;;3.40;2.40;;;17.40;99.90;;;;;;5098220;28;20201;-45
2021/07/06 04:42:57;;;;;;;4.97;2.10;;;17.40;99.90;;;;;;5096147;28;20216;-53
2021/07/06 04:45:24;;;;;;;2.60;2.40;;;17.50;99.90;;;;;;5102350;28;20204;-46
2021/07/06 04:47:52;;;;;;;2.43;2.20;;;17.50;99.90;;;;;;5103284;28;20217;-46
2021/07/06 04:50:18;;;;;;;3.93;2.73;;;17.50;99.90;;;;;;5093252;28;20209;-46
2021/07/06 04:52:47;;;;;;;4.50;3.03;;;17.60;99.90;;;;;;5083856;28;20720;-54
2021/07/06 04:55:15;;;;;;;2.67;2.37;;;17.60;99.90;;;;;;5087757;28;20205;-48
2021/07/06 04:57:41;;;;;;;3.70;2.60;;;17.60;99.90;;;;;;5094383;28;20900;-55
2021/07/06 05:00:10;;;;;;;2.70;2.50;;;17.60;99.90;;;;;;5103837;28;20190;-47
2021/07/06 05:02:37;;;;;;;6.83;2.33;;;17.70;99.90;;;;;;5102021;28;20225;-53
2021/07/06 05:05:07;;;;;;;6.63;2.27;;;17.70;99.90;;;;;;5098807;28;20197;-49
2021/07/06 05:07:35;;;;;;;4.23;2.20;;;17.70;99.90;;;;;;5093403;28;20244;-55
2021/07/06 05:10:02;;;;;;;2.60;2.40;;;17.80;99.90;;;;;;5081673;28;20489;-46
2021/07/06 05:12:28;;;;;;;2.77;2.57;;;17.80;99.90;;;;;;5094286;28;20575;-51
2021/07/06 05:14:55;;;;;;;2.30;2.20;;;17.90;99.90;;;;;;5092391;28;20400;-51
2021/07/06 05:17:22;;;;;;;2.63;2.40;;;18.00;99.90;;;;;;5102338;28;20198;-44
2021/07/06 05:19:48;;;;;;;3.23;2.87;;;18.00;99.90;;;;;;5086130;28;20200;-50
2021/07/06 05:22:16;;;;;;;5.77;2.40;;;18.10;99.90;;;;;;5099591;28;20221;-45
2021/07/06 05:24:43;;;;;;;3.90;2.57;;;18.10;99.90;;;;;;5085295;28;20217;-54
2021/07/06 05:27:10;;;;;;;2.73;2.53;;;18.20;99.90;;;;;;5090538;28;20221;-45
2021/07/06 05:29:36;;;;;;;2.53;2.43;;;18.20;99.90;;;;;;5093926;28;20398;-54
2021/07/06 05:32:04;;;;;;;4.07;2.30;;;18.30;99.90;;;;;;5101842;28;20205;-48
2021/07/06 05:34:30;;;;;;;3.27;2.60;;;18.30;99.90;;;;;;5103140;28;20193;-51
2021/07/06 05:36:57;;;;;;;2.70;2.20;;;18.40;99.90;;;;;;5099996;28;20198;-50
2021/07/06 05:39:25;;;;;;;3.40;2.50;;;18.40;99.90;;;;;;5087476;28;20292;-45
2021/07/06 05:41:52;;;;;;;2.33;2.23;;;18.50;99.90;;;;;;5089813;28;20225;-45
2021/07/06 05:44:19;;;;;;;3.27;2.97;;;18.60;99.90;;;;;;5095203;28;20509;-45
2021/07/06 05:46:46;;;;;;;3.35;3.15;;;18.60;99.90;;;;;;5095092;28;20541;-50
2021/07/06 05:49:12;;;;;;;2.97;2.77;;;18.70;99.90;;;;;;5096450;28;20562;-47
2021/07/06 05:51:39;;;;;;;4.07;2.87;;;18.70;99.90;;;;;;5090723;28;20434;-48
2021/07/06 05:54:06;;;;;;;3.57;2.40;;;18.70;99.90;;;;;;5083362;28;20554;-54
2021/07/06 05:56:34;;;;;;;2.23;2.13;;;18.80;99.90;;;;;;5098627;28;20189;-47
2021/07/06 05:59:01;;;;;;;4.97;2.57;;;18.80;99.90;;;;;;5092784;28;20321;-49
2021/07/06 06:01:30;;;;;;;2.83;2.53;;;18.90;99.90;;;;;;5090865;28;20672;-49
2021/07/06 06:03:57;;;;;;;2.33;2.13;;;18.90;99.90;;;;;;5103541;28;20202;-47
2021/07/06 06:06:23;;;;;;;2.70;2.43;;;18.90;99.90;;;;;;5096933;28;20203;-46
2021/07/06 06:08:50;;;;;;;3.03;2.40;;;19.00;99.90;;;;;;5102573;28;20578;-47
2021/07/06 06:11:16;;;;;;;2.80;2.50;;;19.00;99.90;;;;;;5084507;28;20201;-52
2021/07/06 06:13:45;;;;;;;2.63;2.23;;;19.10;99.90;;;;;;5095004;28;20204;-46
2021/07/06 06:16:11;;;;;;;2.30;2.17;;;19.00;99.90;;;;;;5091717;28;20201;-50
2021/07/06 06:18:38;;;;;;;2.43;2.23;;;19.10;99.90;;;;;;5099634;28;20196;-52
2021/07/06 06:21:05;;;;;;;3.83;2.20;;;19.00;99.90;;;;;;5100185;28;20197;-55
2021/07/06 06:23:32;;;;;;;2.50;2.30;;;19.10;99.90;;;;;;5099715;28;20189;-45
2021/07/06 06:25:59;;;;;;;3.67;2.10;;;19.10;99.90;;;;;;5088162;28;20209;-48
2021/07/06 06:28:25;;;;;;;2.70;2.50;;;19.10;99.90;;;;;;5076869;28;20582;-56
2021/07/06 06:30:54;;;;;;;3.33;2.10;;;19.20;99.90;;;;;;5081965;28;20425;-48
2021/07/06 06:33:21;;;;;;;2.40;2.23;;;19.30;99.90;;;;;;5096905;28;20229;-47
2021/07/06 06:35:48;;;;;;;2.87;2.00;;;19.50;99.90;;;;;;5097621;28;20265;-51
2021/07/06 06:38:14;;;;;;;4.67;2.10;;;19.60;99.90;;;;;;5103066;28;20189;-50
2021/07/06 06:40:41;;;;;;;4.30;1.90;;;19.80;99.90;;;;;;5087547;28;20201;-57
2021/07/06 06:43:07;;;;;;;1.90;1.80;;;20.00;99.90;;;;;;5082493;28;20255;-52
2021/07/06 06:45:34;;;;;;;3.57;2.20;;;20.10;99.90;;;;;;5096727;28;20274;-46
2021/07/06 06:48:02;;;;;;;1.80;1.70;;;20.10;99.90;;;;;;5082372;28;20273;-55
2021/07/06 06:50:29;;;;;;;2.27;1.93;;;20.10;99.90;;;;;;5099327;28;20193;-51
2021/07/06 06:52:55;;;;;;;3.77;2.33;;;20.20;99.90;;;;;;5098280;28;20714;-52
2021/07/06 06:55:22;;;;;;;3.53;1.60;;;20.20;99.90;;;;;;5099786;28;20200;-45
2021/07/06 06:57:49;;;;;;;3.27;1.67;;;20.20;99.90;;;;;;5085581;28;20205;-54
2021/07/06 07:00:16;;;;;;;2.90;1.63;;;20.30;99.90;;;;;;5089557;28;20197;-49
2021/07/06 07:02:43;;;;;;;2.30;1.77;;;20.30;99.90;;;;;;5094644;28;20883;-45
2021/07/06 07:05:12;;;;;;;6.00;2.20;;;20.30;99.90;;;;;;5091764;28;20205;-46
2021/07/06 07:07:39;;;;;;;2.30;2.10;;;20.40;99.90;;;;;;5093200;28;20301;-45
2021/07/06 07:10:07;;;;;;;2.80;1.63;;;20.40;99.90;;;;;;5105783;28;20220;-46
2021/07/06 07:12:35;;;;;;;1.57;1.47;;;20.50;99.90;;;;;;5080958;28;20221;-49
2021/07/06 07:15:02;;;;;;;4.60;1.67;;;20.60;99.90;;;;;;5103441;28;20283;-48
2021/07/06 07:17:29;;;;;;;1.80;1.70;;;20.70;99.90;;;;;;5091010;28;20193;-55
2021/07/06 07:19:55;;;;;;;1.77;1.63;;;20.80;99.90;;;;;;5094908;28;20205;-45
2021/07/06 07:22:23;;;;;;;1.47;1.40;;;20.80;99.90;;;;;;5097727;28;20225;-51
2021/07/06 07:24:50;;;;;;;2.13;1.37;;;20.90;99.90;;;;;;5103748;28;20207;-51
2021/07/06 07:27:17;;;;;;;1.57;1.47;;;20.90;99.90;;;;;;5099668;28;20200;-48
2021/07/06 07:29:43;;;;;;;3.63;1.40;;;21.00;99.90;;;;;;5090683;28;20446;-50
2021/07/06 07:32:10;;;;;;;2.83;1.30;;;21.10;99.90;;;;;;5088020;28;20236;-50
2021/07/06 07:34:37;;;;;;;1.50;1.20;;;21.10;99.90;;;;;;5085080;28;20768;-49
2021/07/06 07:37:04;;;;;;;1.50;1.40;;;21.10;99.90;;;;;;5102684;28;20197;-49
2021/07/06 07:39:33;;;;;;;1.20;1.10;;;21.10;99.90;;;;;;5101301;28;20194;-54
2021/07/06 07:42:03;;;;;;;4.30;1.83;;;21.10;99.90;;;;;;5104542;28;20262;-47
2021/07/06 07:44:30;;;;;;;2.00;1.47;;;21.20;99.90;;;;;;5082444;28;20290;-50
2021/07/06 07:46:57;;;;;;;1.20;1.10;;;21.30;99.90;;;;;;5099546;28;20194;-47
2021/07/06 07:49:23;;;;;;;2.25;1.25;;;21.40;99.90;;;;;;5095602;28;20209;-46
2021/07/06 07:51:50;;;;;;;4.82;1.50;;;21.40;99.90;;;;;;5098398;28;20213;-51
2021/07/06 07:54:17;;;;;;;2.60;1.45;;;21.50;99.90;;;;;;5102631;28;20190;-46
2021/07/06 07:56:45;;;;;;;2.08;1.50;;;21.50;99.90;;;;;;5100317;28;20331;-48
2021/07/06 07:59:12;;;;;;;1.77;1.17;;;21.60;99.90;;;;;;5081626;28;20198;-48
2021/07/06 08:01:39;;;;;;;1.45;1.00;;;21.80;99.90;;;;;;5096310;28;20704;-46
2021/07/06 08:04:06;;;;;;;1.13;1.02;;;21.90;99.90;;;;;;5099941;28;20202;-47
2021/07/06 08:06:33;;;;;;;1.20;1.10;;;22.00;99.90;;;;;;5080773;28;20206;-48
2021/07/06 08:08:59;;;;;;;1.00;1.00;;;22.00;99.90;;;;;;5095123;28;20236;-51
2021/07/06 08:11:26;;;;;;;1.98;1.08;;;22.10;99.90;;;;;;5100742;28;20217;-50
2021/07/06 08:13:54;;;;;;;1.27;1.17;;;22.20;99.90;;;;;;5088926;28;20691;-50
2021/07/06 08:16:21;;;;;;;3.28;1.15;;;22.30;99.90;;;;;;5097894;28;20665;-48
2021/07/06 08:18:47;;;;;;;4.15;1.10;;;22.50;99.90;;;;;;5096804;28;20441;-51
2021/07/06 08:21:14;;;;;;;1.00;0.90;;;22.60;99.90;;;;;;5090012;28;20201;-48
2021/07/06 08:23:41;;;;;;;2.10;1.02;;;22.60;99.90;;;;;;5090554;28;20197;-49
2021/07/06 08:26:08;;;;;;;1.88;1.08;;;22.70;99.90;;;;;;5101159;28;20190;-52
2021/07/06 08:28:34;;;;;;;1.50;1.33;;;22.80;99.90;;;;;;5095783;28;20323;-51
2021/07/06 08:31:02;;;;;;;0.80;0.80;;;22.90;99.90;;;;;;5081664;28;20216;-47
2021/07/06 08:33:29;;;;;;;2.72;1.10;;;23.00;99.90;;;;;;5089023;28;20194;-46
2021/07/06 08:35:56;;;;;;;3.40;1.10;;;23.10;99.90;;;;;;5091438;28;20197;-47
2021/07/06 08:38:22;;;;;;;1.60;0.90;;;23.20;99.90;;;;;;5087619;28;20206;-49
2021/07/06 08:40:50;;;;;;;0.95;0.88;;;23.20;99.90;;;;;;5089160;28;20193;-48
2021/07/06 08:43:18;;;;;;;1.20;0.95;;;23.40;99.90;;;;;;5099665;28;20218;-49
2021/07/06 08:45:45;;;;;;;1.80;1.02;;;23.50;99.90;;;;;;5079103;28;20628;-47
2021/07/06 08:48:15;;;;;;;0.90;0.90;;;23.60;99.90;;;;;;5090033;28;20209;-45
2021/07/06 08:50:45;;;;;;;9.10;1.17;;;23.70;99.90;;;;;;5099335;28;20225;-52
2021/07/06 08:53:12;;;;;;;1.45;0.90;;;23.90;99.90;;;;;;5083726;28;20257;-47
2021/07/06 08:55:38;;;;;;;1.60;1.00;;;24.10;99.90;;;;;;5100640;28;20206;-49
2021/07/06 08:58:05;;;;;;;2.28;1.10;;;24.20;99.90;;;;;;5098352;28;20204;-47
2021/07/06 09:00:32;;;;;;;2.38;1.05;;;24.20;99.90;;;;;;5089400;28;20212;-48
2021/07/06 09:03:01;;;;;;;1.90;1.08;;;24.00;99.90;;;;;;5093806;28;20694;-50
2021/07/06 09:05:29;;;;;;;1.83;1.17;;;24.00;99.90;;;;;;5094496;28;20663;-50
2021/07/06 09:07:57;;;;;;;2.97;1.17;;;23.90;99.90;;;;;;5089349;28;20211;-52
2021/07/06 09:10:25;;;;;;;2.70;1.15;;;23.90;99.90;;;;;;5075535;28;20457;-51
2021/07/06 09:12:52;;;;;;;2.17;1.17;;;23.80;99.90;;;;;;5097160;28;20225;-51
2021/07/06 09:15:24;;;;;;;1.40;1.30;;;23.70;99.90;;;;;;5083792;28;20235;-49
2021/07/06 09:18:10;;;;;;;2.83;1.20;;;23.70;99.90;;;;;;5093380;28;20611;-50
2021/07/06 09:20:41;;;;;;;2.35;1.38;;;23.70;99.90;;;;;;5094761;28;20198;-47
2021/07/06 09:23:21;;;;;;;2.53;1.05;;;23.50;99.90;;;;;;5096224;28;20213;-47
2021/07/06 09:26:03;;;;;;;3.83;1.30;;;23.40;99.90;;;;;;5081542;28;20197;-50
2021/07/06 09:28:32;;;;;;;4.93;1.25;;;23.30;99.90;;;;;;5100772;28;20224;-46
2021/07/06 09:31:01;;;;;;;4.10;1.40;;;23.20;99.90;;;;;;5080339;28;20209;-47
2021/07/06 09:33:29;;;;;;;38.28;4.97;;;23.10;99.90;;;;;;5101792;28;20208;-46
2021/07/06 09:35:57;;;;;;;9.25;2.25;;;23.20;99.90;;;;;;5100409;28;20200;-47
2021/07/06 09:38:23;;;;;;;3.42;1.10;;;23.20;99.90;;;;;;5103862;28;20196;-47
2021/07/06 09:40:51;;;;;;;1.50;1.40;;;23.30;99.90;;;;;;5084228;28;21013;-48
2021/07/06 09:43:23;;;;;;;2.05;1.30;;;23.40;99.90;;;;;;5095910;28;20332;-47
2021/07/06 09:46:02;;;;;;;2.40;1.10;;;23.60;99.90;;;;;;5084706;28;20197;-49
2021/07/06 09:48:30;;;;;;;2.50;1.30;;;23.70;99.90;;;;;;5099607;28;20211;-49
2021/07/06 09:51:16;;;;;;;1.70;1.38;;;23.80;99.90;;;;;;5090767;28;20806;-46
2021/07/06 09:53:46;;;;;;;1.75;1.25;;;24.00;99.90;;;;;;5087256;28;20288;-51
2021/07/06 09:56:16;;;;;;;2.67;1.30;;;24.10;99.90;;;;;;5088972;28;20556;-49
2021/07/06 09:58:57;;;;;;;3.40;1.27;;;24.20;99.90;;;;;;5089967;28;20198;-47
2021/07/06 10:01:25;;;;;;;4.15;1.30;;;24.30;99.90;;;;;;5100651;28;20270;-50
2021/07/06 10:03:53;;;;;;;1.70;1.40;;;24.50;99.90;;;;;;5084590;28;20196;-49
2021/07/06 10:06:23;;;;;;;5.25;1.48;;;24.60;99.90;;;;;;5094594;28;20197;-46
2021/07/06 10:08:50;;;;;;;1.38;1.20;;;24.70;99.90;;;;;;5083112;28;20528;-49
2021/07/06 10:11:18;;;;;;;3.53;1.30;;;24.70;99.90;;;;;;5086468;28;20194;-50
2021/07/06 10:13:44;;;;;;;1.38;1.20;;;24.70;99.90;;;;;;5083436;28;20201;-47
2021/07/06 10:16:14;;;;;;;2.38;1.13;;;24.80;99.90;;;;;;5097181;28;20208;-49
2021/07/06 10:18:40;;;;;;;1.38;1.27;;;24.80;99.90;;;;;;5065499;28;20309;-48
2021/07/06 10:21:07;;;;;;;1.55;1.40;;;24.80;99.90;;;;;;5098256;28;20220;-47
2021/07/06 10:23:36;;;;;;;2.50;1.58;;;24.90;99.90;;;;;;5088284;28;20189;-46
2021/07/06 10:26:07;;;;;;;1.35;1.10;;;24.90;99.90;;;;;;5088503;28;20201;-49
2021/07/06 10:28:34;;;;;;;1.95;1.10;;;25.00;99.90;;;;;;5075215;28;20197;-51
2021/07/06 10:31:15;;;;;;;1.48;1.00;;;25.10;99.90;;;;;;5077440;28;20205;-50
2021/07/06 10:33:42;;;;;;;2.15;1.00;;;25.00;99.90;;;;;;5084277;28;20657;-52
2021/07/06 10:36:11;;;;;;;1.83;0.90;;;25.00;99.90;;;;;;5087437;28;20702;-47
2021/07/06 10:38:44;;;;;;;1.73;1.00;;;24.90;99.90;;;;;;5092828;28;20214;-49
2021/07/06 10:41:18;;;;;;;1.15;0.77;;;24.90;99.90;;;;;;5092919;28;20201;-50
2021/07/06 10:43:58;;;;;;;3.17;1.88;;;24.80;99.90;;;;;;5082573;28;20209;-52
2021/07/06 10:46:31;;;;;;;0.88;0.88;;;24.80;99.90;;;;;;5082110;28;20197;-48
2021/07/06 10:49:01;;;;;;;2.88;0.90;;;24.70;99.90;;;;;;5087736;28;20246;-51
2021/07/06 10:51:50;;;;;;;1.45;0.93;;;24.60;99.90;;;;;;5097456;28;20220;-47
2021/07/06 10:54:26;;;;;;;3.75;1.02;;;24.60;99.90;;;;;;5092620;28;20197;-48
2021/07/06 10:56:54;;;;;;;1.92;0.80;;;24.50;99.90;;;;;;5092089;28;20687;-53
2021/07/06 10:59:22;;;;;;;1.38;0.90;;;24.50;99.90;;;;;;5085438;28;20192;-54
2021/07/06 11:02:01;;;;;;;1.35;1.00;;;24.50;99.90;;;;;;5092265;28;20229;-46
2021/07/06 11:05:06;;;;;;;1.50;0.90;;;24.50;99.90;;;;;;5085584;28;20204;-47
2021/07/06 11:08:00;;;;;;;2.03;0.90;;;24.50;99.90;;;;;;5092090;28;20462;-47
2021/07/06 11:10:40;;;;;;;4.00;1.27;;;24.70;99.90;;;;;;5091559;28;20933;-51
2021/07/06 11:13:18;;;;;;;1.75;0.90;;;24.60;99.90;;;;;;5089765;28;20226;-52
2021/07/06 11:15:45;;;;;;;1.50;0.80;;;24.50;99.90;;;;;;5095514;28;20561;-47
2021/07/06 11:18:11;;;;;;;0.85;0.70;;;24.40;99.90;;;;;;5083816;28;20669;-50
2021/07/06 11:20:41;;;;;;;0.90;0.90;;;24.30;99.90;;;;;;5086361;28;20916;-47
2021/07/06 11:23:10;;;;;;;1.13;1.02;;;24.30;99.90;;;;;;5097623;28;20225;-52
2021/07/06 11:25:41;;;;;;;1.17;1.08;;;24.30;99.90;;;;;;5088225;28;20279;-62
2021/07/06 11:28:11;;;;;;;2.67;0.90;;;24.30;99.90;;;;;;5099425;28;20563;-61
2021/07/06 11:30:42;;;;;;;1.08;0.88;;;24.20;99.90;;;;;;5084166;28;22309;-62
2021/07/06 11:33:10;;;;;;;0.95;0.90;;;24.20;99.90;;;;;;5087456;28;20316;-60
2021/07/06 11:35:39;;;;;;;1.95;0.80;;;24.20;99.90;;;;;;5092729;28;20194;-62
2021/07/06 11:38:07;;;;;;;0.80;0.80;;;24.20;99.90;;;;;;5101298;28;20185;-61
2021/07/06 11:40:36;;;;;;;1.13;1.00;;;24.20;99.90;;;;;;5095219;28;20198;-64
2021/07/06 11:43:04;;;;;;;1.00;0.88;;;24.20;99.90;;;;;;5099572;28;20221;-48
2021/07/06 11:45:31;;;;;;;1.98;1.13;;;24.20;99.90;;;;;;5087708;28;20828;-45
2021/07/06 11:48:10;;;;;;;1.05;1.05;;;24.20;99.90;;;;;;5098802;28;20208;-45
2021/07/06 11:50:37;;;;;;;1.65;1.13;;;24.20;99.90;;;;;;5095976;28;20406;-47
2021/07/06 11:53:04;;;;;;;1.08;0.98;;;24.10;99.90;;;;;;5103633;28;20221;-47
2021/07/06 11:55:33;;;;;;;1.40;1.00;;;24.10;99.90;;;;;;5096812;28;20911;-44
2021/07/06 11:58:02;;;;;;;2.13;1.30;;;24.00;99.90;;;;;;5098618;28;20198;-44
2021/07/06 12:00:32;;;;;;;2.28;0.80;;;24.00;99.90;;;;;;5084625;28;20220;-47
2021/07/06 12:03:16;;;;;;;4.10;1.10;;;23.90;99.90;;;;;;5096285;28;20217;-43
2021/07/06 12:05:43;;;;;;;1.67;1.10;;;23.80;99.90;;;;;;5080805;28;20209;-44
2021/07/06 12:08:17;;;;;;;1.73;1.23;;;23.70;99.90;;;;;;5099504;28;20210;-48
2021/07/06 12:10:59;;;;;;;2.05;0.98;;;23.70;99.90;;;;;;5101720;28;20224;-46
2021/07/06 12:13:27;;;;;;;1.10;1.00;;;23.60;99.90;;;;;;5099154;28;20590;-46
2021/07/06 12:16:00;;;;;;;3.42;1.00;;;23.50;99.90;;;;;;5096979;28;20197;-44
2021/07/06 12:18:27;;;;;;;2.55;1.17;;;23.50;99.90;;;;;;5083240;28;21000;-42
2021/07/06 12:20:57;;;;;;;1.48;1.15;;;23.40;99.90;;;;;;5089813;28;20207;-44
2021/07/06 12:23:24;;;;;;;2.53;1.00;;;23.40;99.90;;;;;;5095783;28;20542;-47
2021/07/06 12:25:53;;;;;;;1.38;1.27;;;23.30;99.90;;;;;;5096295;28;20611;-45
2021/07/06 12:28:20;;;;;;;4.22;1.10;;;23.20;99.90;;;;;;5094255;28;20665;-45
2021/07/06 12:31:16;;;;;;;1.38;1.08;;;23.00;99.90;;;;;;5097791;28;20216;-46
2021/07/06 12:33:43;;;;;;;4.10;1.08;;;22.90;99.90;;;;;;5086850;28;20194;-45
2021/07/06 12:36:10;;;;;;;1.52;0.70;;;22.80;99.90;;;;;;5082728;28;20209;-47
2021/07/06 12:38:37;;;;;;;0.80;0.73;;;22.80;99.90;;;;;;5102845;28;20197;-43
2021/07/06 12:41:19;;;;;;;1.73;0.90;;;22.70;99.90;;;;;;5100188;28;20569;-46
2021/07/06 12:43:57;;;;;;;0.85;0.85;;;22.70;99.90;;;;;;5090807;28;20232;-48
2021/07/06 12:46:28;;;;;;;0.70;0.70;;;22.70;99.90;;;;;;5083508;28;20734;-46
2021/07/06 12:48:55;;;;;;;1.98;0.60;;;22.60;99.90;;;;;;5090686;28;20623;-45
2021/07/06 12:51:21;;;;;;;0.88;0.88;;;22.60;99.90;;;;;;5084866;28;22007;-46
2021/07/06 12:53:59;;;;;;;0.85;0.70;;;22.60;99.90;;;;;;5091514;28;20198;-49